Time;durP1;ratioP1;P1;durP2;ratioP2;P2;SDS_P1;SDS_P2;PMS_P1;PMS_P2;Temp;Humidity;BMP_temperature;BMP_pressure;BME280_temperature;BME280_humidity;BME280_pressure;Samples;Min_cycle;Max_cycle;Signal;HPM_P1;HPM_P2
2021/03/26 00:01:41;;;;;;;10.70;9.70;;;5.20;99.90;;;6.06;76.18;98425.63;5199775;28;20228;-56
2021/03/26 00:04:15;;;;;;;10.80;9.70;;;5.20;99.90;;;6.04;76.42;98417.91;5205947;28;20207;-54
2021/03/26 00:06:49;;;;;;;11.13;9.90;;;5.10;99.90;;;6.08;76.56;98421.59;5185538;28;20579;-55
2021/03/26 00:09:25;;;;;;;9.83;8.93;;;5.20;99.90;;;6.09;76.12;98410.66;5185206;28;20284;-58
2021/03/26 00:24:27;;;;;;;9.80;8.90;;;5.00;99.90;;;5.95;74.73;98423.84;5188331;28;20191;-55
2021/03/26 00:26:59;;;;;;;9.60;8.70;;;5.00;99.90;;;5.95;74.69;98418.78;5198652;28;20202;-56
2021/03/26 00:29:31;;;;;;;9.73;8.80;;;4.90;99.90;;;5.87;75.48;98423.19;5204933;28;20233;-53
2021/03/26 00:32:03;;;;;;;9.77;8.83;;;4.80;99.90;;;5.90;75.21;98420.91;5193234;28;20680;-54
2021/03/26 00:34:36;;;;;;;10.17;8.97;;;4.80;99.90;;;5.87;74.75;98428.28;5197423;28;20647;-56
2021/03/26 00:37:08;;;;;;;10.17;9.13;;;4.80;99.90;;;5.81;74.95;98426.09;5184548;28;20302;-54
2021/03/26 00:39:41;;;;;;;10.37;9.37;;;4.80;99.90;;;5.78;75.19;98423.31;5191987;28;20665;-55
2021/03/26 00:42:13;;;;;;;9.27;8.37;;;4.80;99.90;;;5.60;75.21;98417.53;5204925;28;20205;-57
2021/03/26 00:44:45;;;;;;;10.43;9.33;;;4.60;99.90;;;5.58;75.48;98426.69;5204408;28;20286;-54
2021/03/26 00:47:17;;;;;;;10.60;9.60;;;4.60;99.90;;;5.58;76.12;98421.63;5183980;28;20674;-54
2021/03/26 00:49:49;;;;;;;11.10;9.63;;;4.60;99.90;;;5.57;75.81;98424.91;5193176;28;20300;-56
2021/03/26 00:52:21;;;;;;;10.40;9.40;;;4.60;99.90;;;5.37;76.11;98428.25;5204781;28;20201;-54
2021/03/26 00:54:54;;;;;;;13.00;10.30;;;4.40;99.90;;;5.34;76.61;98422.03;5190136;28;20206;-57
2021/03/26 00:57:26;;;;;;;10.57;9.60;;;4.40;99.90;;;5.33;76.42;98423.69;5193959;28;20194;-57
2021/03/26 00:59:58;;;;;;;11.87;9.40;;;4.30;99.90;;;5.39;76.67;98421.69;5204748;28;20584;-53
2021/03/26 01:02:30;;;;;;;11.27;10.20;;;4.40;99.90;;;5.37;77.13;98418.13;5194995;28;20282;-58
2021/03/26 01:05:06;;;;;;;11.03;9.83;;;4.40;99.90;;;5.35;77.66;98421.28;5186523;28;20357;-58
2021/03/26 01:07:38;;;;;;;12.43;10.70;;;4.40;99.90;;;5.30;78.02;98415.84;5185434;28;20198;-57
2021/03/26 01:10:16;;;;;;;12.33;10.37;;;4.40;99.90;;;5.31;77.68;98422.66;5184423;28;20697;-57
2021/03/26 01:12:48;;;;;;;10.83;9.63;;;4.40;99.90;;;5.27;77.33;98419.75;5194467;28;20194;-56
2021/03/26 01:15:23;;;;;;;12.00;10.77;;;4.30;99.90;;;5.29;77.31;98423.28;5198638;28;20214;-59
2021/03/26 01:17:57;;;;;;;11.23;10.23;;;4.30;99.90;;;5.28;77.03;98416.44;5184331;28;20592;-56
2021/03/26 01:20:33;;;;;;;12.97;11.47;;;4.20;99.90;;;5.22;76.60;98419.34;5191220;28;20216;-57
2021/03/26 01:23:06;;;;;;;12.77;10.87;;;4.10;99.90;;;5.00;77.19;98423.28;5194766;28;20694;-58
2021/03/26 01:25:41;;;;;;;12.87;10.87;;;4.00;99.90;;;5.06;77.28;98418.75;5204369;28;20206;-58
2021/03/26 01:28:16;;;;;;;12.37;10.90;;;4.00;99.90;;;5.04;77.35;98425.38;5185292;28;20688;-57
2021/03/26 01:30:49;;;;;;;12.10;10.93;;;4.00;99.90;;;5.06;77.54;98423.81;5201890;28;20234;-56
2021/03/26 01:33:23;;;;;;;11.93;10.73;;;4.00;99.90;;;5.02;77.26;98420.16;5204723;28;20209;-57
2021/03/26 01:35:57;;;;;;;11.57;10.40;;;4.00;99.90;;;4.97;76.95;98428.97;5193317;28;20296;-58
2021/03/26 01:38:29;;;;;;;12.17;10.63;;;4.00;99.90;;;4.98;77.02;98428.25;5193433;28;20201;-55
2021/03/26 01:41:06;;;;;;;11.23;10.23;;;4.00;99.90;;;5.00;76.97;98419.13;5202909;28;20220;-58
2021/03/26 01:43:40;;;;;;;10.67;9.63;;;4.00;99.90;;;4.98;76.83;98423.19;5204496;28;20200;-58
2021/03/26 01:46:16;;;;;;;10.93;9.93;;;3.90;99.90;;;4.93;76.95;98419.34;5195821;28;20280;-56
2021/03/26 01:48:51;;;;;;;10.73;9.70;;;3.90;99.90;;;4.92;76.51;98421.00;5183695;28;20229;-58
2021/03/26 01:51:28;;;;;;;11.27;10.17;;;3.90;99.90;;;4.87;76.60;98414.63;5186652;28;20214;-59
2021/03/26 01:54:01;;;;;;;12.83;11.17;;;3.80;99.90;;;4.75;76.81;98405.97;5205805;28;20204;-57
2021/03/26 01:56:35;;;;;;;13.77;12.30;;;3.70;99.90;;;4.74;77.58;98407.59;5187128;28;20204;-58
2021/03/26 01:59:07;;;;;;;13.63;12.33;;;3.80;99.90;;;4.74;78.81;98411.75;5187313;28;20212;-57
2021/03/26 02:01:45;;;;;;;12.43;11.13;;;3.90;99.90;;;4.81;78.81;98405.59;5206035;28;20200;-58
2021/03/26 02:04:28;;;;;;;12.33;11.03;;;3.90;99.90;;;4.82;78.43;98407.38;5205756;28;20295;-58
2021/03/26 02:07:00;;;;;;;13.83;12.43;;;3.90;99.90;;;4.86;78.51;98401.81;5205977;28;20426;-58
2021/03/26 02:09:36;;;;;;;12.97;10.87;;;3.80;99.90;;;4.85;78.30;98402.59;5188929;28;20345;-55
2021/03/26 02:12:18;;;;;;;14.07;12.00;;;3.90;99.90;;;4.90;78.36;98406.41;5200720;28;20645;-58
2021/03/26 02:14:55;;;;;;;12.63;11.33;;;3.90;99.90;;;4.85;77.94;98403.47;5207870;28;20205;-57
2021/03/26 02:17:31;;;;;;;13.47;12.00;;;3.90;99.90;;;4.73;77.97;98412.53;5205856;28;20190;-58
2021/03/26 02:20:13;;;;;;;14.37;12.97;;;3.80;99.90;;;4.70;78.13;98403.00;5207774;28;20224;-55
2021/03/26 02:22:45;;;;;;;15.13;10.90;;;3.70;99.90;;;4.73;78.16;98404.94;5189883;28;20199;-58
2021/03/26 02:25:21;;;;;;;12.67;11.40;;;3.70;99.90;;;4.76;77.48;98407.72;5206072;28;20199;-58
2021/03/26 02:27:53;;;;;;;12.80;11.47;;;3.70;99.90;;;4.71;77.83;98404.78;5207183;28;20235;-57
2021/03/26 02:30:30;;;;;;;13.43;12.13;;;3.70;99.90;;;4.75;77.73;98403.44;5204398;28;20611;-57
2021/03/26 02:33:03;;;;;;;15.00;12.47;;;3.70;99.90;;;4.68;78.01;98403.63;5207301;28;20296;-58
2021/03/26 02:35:39;;;;;;;13.80;12.40;;;3.70;99.90;;;4.76;78.32;98400.13;5205227;28;20594;-58
2021/03/26 02:38:18;;;;;;;12.83;11.63;;;3.80;99.90;;;4.84;78.37;98401.69;5199025;28;20226;-57
2021/03/26 02:40:57;;;;;;;12.83;11.53;;;3.90;99.90;;;4.83;78.29;98394.84;5188758;28;20229;-56
2021/03/26 02:43:42;;;;;;;13.10;11.80;;;3.90;99.90;;;4.89;78.09;98399.56;5187785;28;20227;-58
2021/03/26 02:46:19;;;;;;;12.10;10.97;;;3.90;99.90;;;4.86;78.12;98395.09;5190616;28;20218;-58
2021/03/26 02:49:01;;;;;;;14.07;12.27;;;4.00;99.90;;;4.88;78.37;98393.59;5186427;28;20281;-59
2021/03/26 02:51:39;;;;;;;13.07;11.87;;;4.00;99.90;;;4.94;78.34;98391.59;5206677;28;20579;-59
2021/03/26 02:54:19;;;;;;;13.57;12.17;;;4.00;99.90;;;5.01;78.19;98385.44;5204554;28;20198;-57
2021/03/26 02:56:58;;;;;;;13.63;12.23;;;4.10;99.90;;;5.00;77.92;98378.59;5199122;28;20208;-56
2021/03/26 02:59:37;;;;;;;15.63;13.57;;;3.90;99.90;;;4.93;78.06;98377.16;5206484;28;20243;-57
2021/03/26 03:02:13;;;;;;;14.80;13.30;;;3.90;99.90;;;4.94;78.65;98383.13;5202341;28;20565;-57
2021/03/26 03:04:51;;;;;;;16.57;13.40;;;4.00;99.90;;;5.02;79.03;98378.72;5191173;28;20204;-57
2021/03/26 03:07:28;;;;;;;15.83;13.57;;;4.10;99.90;;;5.11;77.92;98382.06;5200267;28;20195;-57
2021/03/26 03:10:16;;;;;;;14.87;13.27;;;4.10;99.90;;;5.04;78.36;98387.38;5186409;28;20240;-58
2021/03/26 03:12:55;;;;;;;14.27;12.77;;;4.10;99.90;;;5.00;78.77;98387.84;5188528;28;20205;-58
2021/03/26 03:15:30;;;;;;;14.57;13.07;;;4.00;99.90;;;5.05;78.66;98386.59;5186737;28;20207;-57
2021/03/26 03:18:11;;;;;;;14.30;12.90;;;4.10;99.90;;;4.99;78.69;98391.13;5206289;28;20868;-59
2021/03/26 03:20:51;;;;;;;13.90;12.47;;;4.00;99.90;;;4.96;78.66;98386.69;5203588;28;20224;-58
2021/03/26 03:23:29;;;;;;;14.33;12.33;;;4.00;99.90;;;4.94;78.74;98384.00;5186077;28;20753;-59
2021/03/26 03:26:08;;;;;;;14.07;12.67;;;4.00;99.90;;;5.02;78.15;98381.25;5187033;28;20198;-59
2021/03/26 03:28:52;;;;;;;12.77;11.57;;;4.00;99.90;;;4.93;77.96;98384.78;5193985;28;20205;-58
2021/03/26 03:31:50;;;;;;;13.50;12.20;;;3.90;99.90;;;4.84;78.23;98389.03;5196900;28;20225;-58
2021/03/26 03:34:31;;;;;;;14.43;12.93;;;3.80;99.90;;;4.85;77.55;98385.75;5185820;28;20202;-58
2021/03/26 03:37:16;;;;;;;13.33;12.03;;;3.70;99.90;;;4.79;78.10;98382.69;5196996;28;20208;-58
2021/03/26 03:40:00;;;;;;;13.67;12.30;;;3.70;99.90;;;4.80;77.71;98383.56;5206369;28;20316;-57
2021/03/26 03:42:42;;;;;;;13.53;12.10;;;3.70;99.90;;;4.64;77.85;98381.34;5188379;28;20307;-59
2021/03/26 03:45:23;;;;;;;15.07;13.43;;;3.50;99.90;;;4.57;78.13;98377.38;5185218;28;20586;-58
2021/03/26 03:48:01;;;;;;;14.57;13.13;;;3.60;99.90;;;4.50;78.69;98381.00;5186083;28;20206;-59
2021/03/26 03:50:39;;;;;;;15.57;12.93;;;3.50;99.90;;;4.52;79.06;98376.06;5205925;28;20772;-58
2021/03/26 03:53:18;;;;;;;15.73;14.00;;;3.50;99.90;;;4.47;78.71;98375.66;5200697;28;20245;-59
2021/03/26 03:55:55;;;;;;;16.70;14.60;;;3.50;99.90;;;4.37;78.68;98370.53;5206880;28;20220;-59
2021/03/26 03:58:32;;;;;;;15.47;13.80;;;3.40;99.90;;;4.30;79.00;98373.28;5201490;28;20198;-59
2021/03/26 04:01:13;;;;;;;16.57;14.40;;;3.30;99.90;;;4.26;79.39;98372.13;5191931;28;20218;-59
2021/03/26 04:03:50;;;;;;;15.57;13.53;;;3.20;99.90;;;4.26;79.50;98373.75;5199124;28;20292;-58
2021/03/26 04:06:35;;;;;;;15.77;14.23;;;3.30;99.90;;;4.31;79.70;98375.06;5196661;28;20636;-58
2021/03/26 04:09:11;;;;;;;14.73;13.13;;;3.30;99.90;;;4.30;79.99;98370.75;5193381;28;20229;-57
2021/03/26 04:11:47;;;;;;;14.87;13.37;;;3.40;99.90;;;4.34;79.42;98369.38;5186534;28;20741;-57
2021/03/26 04:14:27;;;;;;;15.57;12.63;;;3.30;99.90;;;4.23;79.38;98376.00;5194281;28;20196;-57
2021/03/26 04:17:06;;;;;;;16.07;14.37;;;3.30;99.90;;;4.16;79.46;98378.75;5202031;28;20213;-58
2021/03/26 04:19:43;;;;;;;15.77;13.60;;;3.20;99.90;;;4.27;79.15;98373.91;5204973;28;20258;-58
2021/03/26 04:22:21;;;;;;;14.07;12.67;;;3.20;99.90;;;4.26;78.89;98376.28;5193357;28;20269;-57
2021/03/26 04:24:59;;;;;;;15.93;14.13;;;3.20;99.90;;;4.21;79.22;98373.34;5184294;28;20201;-54
2021/03/26 04:27:36;;;;;;;19.00;16.27;;;3.20;99.90;;;4.11;80.14;98369.84;5185317;28;20204;-54
2021/03/26 04:30:15;;;;;;;18.03;15.07;;;3.30;99.90;;;4.10;80.84;98373.16;5203581;28;20227;-57
2021/03/26 04:32:49;;;;;;;17.37;15.43;;;3.30;99.90;;;4.12;80.90;98380.13;5194968;28;20201;-59
2021/03/26 04:35:23;;;;;;;17.17;15.47;;;3.30;99.90;;;4.20;80.94;98375.72;5204817;28;20295;-57
2021/03/26 04:38:07;;;;;;;17.53;15.07;;;3.30;99.90;;;4.17;81.11;98365.34;5201175;28;20204;-58
2021/03/26 04:40:42;;;;;;;18.97;15.90;;;3.40;99.90;;;4.17;81.13;98366.22;5198843;28;20222;-58
2021/03/26 04:43:25;;;;;;;18.37;16.43;;;3.30;99.90;;;4.20;81.29;98368.13;5190675;28;20198;-58
2021/03/26 04:46:07;;;;;;;17.80;15.90;;;3.30;99.90;;;4.24;81.49;98367.69;5203056;28;20305;-58
2021/03/26 04:48:47;;;;;;;17.97;15.57;;;3.30;99.90;;;4.26;81.05;98371.22;5193673;28;20201;-59
2021/03/26 04:51:25;;;;;;;17.33;15.50;;;3.30;99.90;;;4.23;80.80;98366.75;5184683;28;20248;-58
2021/03/26 04:54:10;;;;;;;20.73;16.13;;;3.30;99.90;;;4.24;81.28;98367.69;5193179;28;20202;-57
2021/03/26 04:56:45;;;;;;;18.50;16.07;;;3.40;99.90;;;4.22;81.39;98364.13;5197953;28;20209;-58
2021/03/26 04:59:24;;;;;;;19.13;17.07;;;3.40;99.90;;;4.19;81.81;98364.72;5198222;28;20223;-58
2021/03/26 05:01:57;;;;;;;19.67;16.23;;;3.40;99.90;;;4.21;81.72;98365.75;5247984;22;20227;-58
2021/03/26 05:04:37;;;;;;;18.63;16.60;;;3.30;99.90;;;4.22;81.41;98361.59;5234473;28;20226;-56
2021/03/26 05:07:15;;;;;;;19.17;15.90;;;3.30;99.90;;;4.17;81.87;98358.63;5229637;28;20677;-57
2021/03/26 05:09:50;;;;;;;17.53;15.73;;;3.30;99.90;;;4.20;81.50;98361.44;5235380;28;20214;-58
2021/03/26 05:12:27;;;;;;;18.77;16.47;;;3.30;99.90;;;4.19;81.62;98366.38;5229363;28;20652;-55
2021/03/26 05:15:04;;;;;;;19.97;16.10;;;3.40;99.90;;;4.17;81.38;98358.63;5229149;28;20238;-57
2021/03/26 05:17:42;;;;;;;20.17;16.30;;;3.30;99.90;;;4.20;80.91;98370.66;5228280;28;20201;-57
2021/03/26 05:20:27;;;;;;;19.40;16.60;;;3.20;99.90;;;4.27;80.97;98361.25;5228151;28;20686;-57
2021/03/26 05:23:05;;;;;;;17.80;15.90;;;3.30;99.90;;;4.29;80.65;98361.38;5228080;28;20202;-56
2021/03/26 05:25:40;;;;;;;21.97;17.37;;;3.40;99.90;;;4.18;80.98;98362.97;5230182;28;20204;-58
2021/03/26 05:28:19;;;;;;;18.33;15.80;;;3.30;99.90;;;4.19;81.10;98363.84;5232037;28;20197;-58
2021/03/26 05:30:53;;;;;;;18.93;16.57;;;3.30;99.90;;;4.21;81.16;98372.47;5232104;28;20226;-59
2021/03/26 05:33:32;;;;;;;17.37;15.40;;;3.20;99.90;;;4.18;80.54;98379.78;5232062;28;20201;-57
2021/03/26 05:36:10;;;;;;;17.20;15.47;;;3.20;99.90;;;4.22;80.01;98371.72;5232141;28;20271;-57
2021/03/26 05:38:47;;;;;;;18.20;16.30;;;3.20;99.90;;;4.20;79.97;98378.25;5232067;28;20195;-57
2021/03/26 05:41:36;;;;;;;17.03;15.33;;;3.20;99.90;;;4.21;79.36;98362.34;5231612;28;20211;-59
2021/03/26 05:44:27;;;;;;;18.10;16.03;;;3.20;99.90;;;4.16;79.85;98354.34;5231842;28;20317;-58
2021/03/26 05:47:23;;;;;;;21.10;17.43;;;3.30;99.90;;;4.04;81.19;98364.25;5227684;28;20238;-59
2021/03/26 05:50:18;;;;;;;19.70;17.60;;;3.20;99.90;;;4.15;81.00;98376.94;5232127;28;20684;-56
2021/03/26 05:53:13;;;;;;;19.03;17.03;;;3.30;99.90;;;4.20;81.54;98363.09;5229315;28;20664;-58
2021/03/26 05:55:52;;;;;;;19.47;16.53;;;3.30;99.90;;;4.29;81.16;98367.34;5232121;28;20208;-57
2021/03/26 05:58:50;;;;;;;19.73;17.57;;;3.40;99.90;;;4.38;81.03;98367.28;5232189;28;20268;-58
2021/03/26 06:01:39;;;;;;;18.57;16.00;;;3.50;99.90;;;4.47;81.02;98372.25;5226148;28;20227;-58
2021/03/26 06:04:44;;;;;;;19.97;17.10;;;3.60;99.90;;;4.58;80.68;98375.72;5226602;28;20197;-58
2021/03/26 06:08:18;;;;;;;18.30;16.20;;;3.60;99.90;;;4.63;80.16;98365.25;5229794;28;20287;-58
2021/03/26 06:11:14;;;;;;;18.10;16.13;;;3.70;99.90;;;4.68;79.85;98363.13;5212402;28;20747;-58
2021/03/26 06:14:04;;;;;;;18.40;16.53;;;3.60;99.90;;;4.72;79.52;98361.00;5221319;28;20657;-55
2021/03/26 06:16:52;;;;;;;21.23;16.80;;;3.70;99.90;;;4.71;79.68;98359.22;5228891;28;20227;-58
2021/03/26 06:20:03;;;;;;;18.77;16.63;;;3.80;99.90;;;4.92;79.84;98355.16;5212989;28;20216;-57
2021/03/26 06:23:22;;;;;;;20.17;17.57;;;4.00;99.90;;;5.20;79.08;98362.56;5227279;28;20205;-57
2021/03/26 06:26:20;;;;;;;20.70;17.50;;;4.20;99.90;;;5.53;78.54;98348.47;5224929;28;20201;-58
2021/03/26 06:29:08;;;;;;;19.47;16.63;;;4.30;99.90;;;5.97;76.81;98353.84;5231787;28;20305;-59
2021/03/26 06:32:41;;;;;;;18.33;15.70;;;4.60;99.90;;;6.43;74.11;98352.53;5231612;28;20520;-57
2021/03/26 06:35:52;;;;;;;17.03;15.23;;;4.90;99.90;;;6.85;72.55;98354.19;5215694;28;20208;-60
2021/03/26 06:39:28;;;;;;;17.33;15.50;;;5.20;99.90;;;7.29;72.62;98352.56;5223935;28;20201;-60
2021/03/26 06:42:42;;;;;;;18.00;14.53;;;5.60;99.90;;;7.47;70.72;98348.03;5203583;28;20303;-60
2021/03/26 06:45:51;;;;;;;18.73;15.67;;;5.90;99.90;;;7.86;69.60;98346.75;5214296;28;20200;-57
2021/03/26 06:48:43;;;;;;;17.67;15.87;;;6.10;99.90;;;8.30;68.06;98341.53;5220977;28;20679;-58
2021/03/26 06:51:37;;;;;;;16.77;15.07;;;6.30;99.90;;;8.71;66.05;98341.13;5217854;28;20714;-58
2021/03/26 06:54:44;;;;;;;17.20;15.40;;;6.60;99.90;;;9.13;63.53;98337.28;5228856;28;20207;-57
2021/03/26 06:57:50;;;;;;;17.03;15.00;;;6.70;99.90;;;9.35;63.55;98340.56;5210663;28;20193;-57
2021/03/26 07:00:51;;;;;;;17.80;15.93;;;7.00;99.90;;;9.89;61.79;98334.03;5223751;28;20233;-55
2021/03/26 07:03:58;;;;;;;18.30;16.20;;;7.40;99.90;;;10.06;60.73;98335.16;5230514;28;20201;-58
2021/03/26 07:07:05;;;;;;;17.93;15.57;;;7.60;99.90;;;10.54;58.99;98334.97;5222541;28;20197;-58
2021/03/26 07:10:24;;;;;;;16.63;15.03;;;7.90;99.90;;;11.02;57.76;98332.91;5229856;28;20772;-58
2021/03/26 07:13:35;;;;;;;17.57;15.87;;;8.10;99.90;;;11.25;56.90;98340.34;5217164;28;20190;-59
2021/03/26 07:16:34;;;;;;;17.40;15.60;;;8.60;99.90;;;11.44;56.14;98337.22;5214398;28;20219;-57
2021/03/26 07:19:29;;;;;;;18.77;16.37;;;8.60;99.90;;;11.33;56.59;98339.91;5229182;28;20225;-57
2021/03/26 07:22:17;;;;;;;17.87;15.63;;;8.60;99.90;;;11.03;57.30;98339.78;5226461;28;20217;-58
2021/03/26 07:25:14;;;;;;;17.50;15.70;;;8.70;99.90;;;10.93;57.35;98337.41;5230404;28;20562;-59
2021/03/26 07:28:05;;;;;;;18.30;16.00;;;9.00;99.90;;;11.09;58.08;98340.16;5224400;28;20194;-57
2021/03/26 07:30:55;;;;;;;18.63;16.70;;;9.10;99.90;;;11.15;57.71;98335.41;5228812;28;20225;-59
2021/03/26 07:33:31;;;;;;;16.83;15.23;;;9.20;99.90;;;11.24;57.91;98335.09;5228820;28;20199;-58
2021/03/26 07:36:31;;;;;;;18.33;16.53;;;9.50;99.90;;;11.46;57.47;98337.31;5224268;28;20194;-58
2021/03/26 07:39:25;;;;;;;17.67;15.93;;;9.80;99.90;;;11.73;56.60;98340.66;5221028;28;20199;-59
2021/03/26 07:42:37;;;;;;;19.17;16.67;;;9.90;99.90;;;11.81;57.21;98338.56;5214447;28;20213;-59
2021/03/26 07:45:52;;;;;;;16.98;15.30;;;10.10;99.90;;;11.91;56.07;98339.25;5223827;28;20220;-59
2021/03/26 07:48:40;;;;;;;17.35;15.60;;;10.40;99.90;;;12.23;55.50;98339.38;5220573;28;20197;-59
2021/03/26 07:51:22;;;;;;;19.70;16.45;;;10.90;99.90;;;12.22;55.52;98335.94;5228925;28;20213;-58
2021/03/26 07:54:14;;;;;;;18.63;16.83;;;10.70;99.90;;;12.32;55.76;98330.53;5219784;28;20293;-58
2021/03/26 07:57:29;;;;;;;19.35;16.20;;;11.00;99.90;;;12.54;56.22;98324.06;5216217;28;20722;-59
2021/03/26 08:00:25;;;;;;;20.70;18.30;;;11.20;99.90;;;12.71;54.90;98309.63;5223129;28;20231;-56
2021/03/26 08:03:18;;;;;;;18.92;16.38;;;11.50;99.90;;;12.93;55.09;98310.00;5226379;28;20212;-58
2021/03/26 08:06:06;;;;;;;18.30;16.38;;;11.80;99.90;;;13.25;53.47;98316.03;5225707;28;20201;-58
2021/03/26 08:09:02;;;;;;;19.40;17.38;;;12.20;99.90;;;13.12;53.44;98314.47;5227412;28;20193;-59
2021/03/26 08:11:53;;;;;;;18.63;16.63;;;12.00;99.90;;;13.13;54.83;98312.78;5219976;28;20217;-59
2021/03/26 08:15:23;;;;;;;18.52;16.42;;;11.90;99.90;;;13.37;53.55;98316.72;5221440;28;20859;-58
2021/03/26 08:18:09;;;;;;;17.27;15.35;;;12.20;99.90;;;13.58;53.51;98313.50;5224301;28;20305;-57
2021/03/26 08:20:58;;;;;;;18.10;16.23;;;12.60;99.90;;;13.60;53.19;98301.63;5219523;28;20216;-59
2021/03/26 08:23:42;;;;;;;18.77;16.55;;;12.50;99.90;;;13.93;52.85;98303.34;5209125;28;20185;-57
2021/03/26 08:26:42;;;;;;;18.75;16.85;;;12.80;99.90;;;13.98;52.41;98301.91;5211161;28;20687;-58
2021/03/26 08:29:24;;;;;;;17.45;15.75;;;12.90;99.90;;;14.22;51.93;98306.50;5213539;28;20292;-54
2021/03/26 08:32:35;;;;;;;17.33;15.63;;;13.20;99.90;;;14.37;52.05;98306.41;5223189;28;20229;-57
2021/03/26 08:35:32;;;;;;;17.23;15.40;;;13.30;99.90;;;14.65;52.17;98298.38;5226521;28;20205;-58
2021/03/26 08:38:23;;;;;;;18.95;17.15;;;13.70;99.90;;;14.98;50.96;98298.22;5219928;28;20208;-58
2021/03/26 08:41:00;;;;;;;17.60;15.75;;;14.10;99.90;;;15.17;50.02;98294.81;5225665;28;20307;-59
2021/03/26 08:43:34;;;;;;;16.35;14.63;;;14.40;99.90;;;15.35;50.03;98290.47;5225240;28;20192;-59
2021/03/26 08:46:17;;;;;;;15.23;13.25;;;14.50;99.90;;;15.40;48.94;98296.72;5225959;28;20625;-57
2021/03/26 08:49:00;;;;;;;16.63;14.90;;;14.50;99.20;;;15.51;48.52;98299.78;5225182;28;20207;-57
2021/03/26 08:52:27;;;;;;;14.90;13.43;;;14.60;99.00;;;15.60;48.86;98294.16;5221591;28;20312;-59
2021/03/26 08:55:26;;;;;;;14.95;13.48;;;14.60;98.90;;;15.69;48.45;98298.06;5206351;28;20194;-58
2021/03/26 08:58:14;;;;;;;14.93;12.60;;;14.90;98.60;;;16.09;46.36;98299.78;5212364;28;20573;-59
2021/03/26 09:01:37;;;;;;;14.65;12.85;;;15.30;97.20;;;16.28;46.27;98295.38;5214522;28;20308;-58
2021/03/26 09:04:37;;;;;;;13.43;11.95;;;15.60;96.70;;;16.48;45.15;98284.16;5209024;28;20202;-57
2021/03/26 09:07:24;;;;;;;15.68;12.77;;;15.70;96.10;;;16.58;43.75;98291.47;5215646;28;20285;-59
2021/03/26 09:10:25;;;;;;;13.15;11.90;;;15.80;95.10;;;16.59;45.16;98282.91;5227665;28;20231;-57
2021/03/26 09:13:23;;;;;;;16.27;12.75;;;15.90;95.80;;;16.87;44.03;98279.75;5226796;28;20193;-59
2021/03/26 09:16:02;;;;;;;14.30;12.80;;;16.10;95.10;;;16.91;43.58;98274.69;5227359;28;20784;-60
2021/03/26 09:18:50;;;;;;;13.48;12.18;;;16.20;94.60;;;16.99;44.23;98271.59;5221305;28;20201;-59
2021/03/26 09:21:58;;;;;;;14.07;12.63;;;16.30;95.20;;;17.06;44.57;98270.16;5229061;28;20696;-59
2021/03/26 09:24:47;;;;;;;16.25;13.50;;;16.30;95.50;;;17.29;43.91;98271.00;5146089;28;20206;-60
2021/03/26 09:27:31;;;;;;;14.13;12.18;;;16.40;94.90;;;17.30;44.29;98260.72;5225541;28;20255;-58
2021/03/26 09:30:20;;;;;;;14.48;13.07;;;16.60;95.10;;;17.40;44.78;98250.72;5222818;28;20304;-59
2021/03/26 09:32:55;;;;;;;14.10;12.60;;;16.70;95.00;;;17.66;43.16;98256.84;5227729;28;20193;-60
2021/03/26 09:35:39;;;;;;;14.90;13.45;;;16.90;93.90;;;17.61;42.37;98253.22;5227572;28;20247;-59
2021/03/26 09:38:26;;;;;;;15.93;14.30;;;16.80;93.70;;;16.96;43.61;98250.81;5226963;28;20205;-59
2021/03/26 09:41:13;;;;;;;14.82;13.32;;;16.40;93.90;;;17.23;43.33;98245.84;5227123;28;20213;-59
2021/03/26 09:43:55;;;;;;;14.20;12.80;;;16.50;93.90;;;17.49;43.10;98246.78;5228323;28;20254;-58
2021/03/26 09:46:41;;;;;;;14.68;13.25;;;16.90;93.50;;;17.68;41.88;98242.25;5226578;28;20669;-59
2021/03/26 09:49:23;;;;;;;13.57;12.00;;;17.00;92.60;;;17.81;41.08;98239.31;5221375;28;20721;-56
2021/03/26 09:52:01;;;;;;;15.43;13.48;;;17.10;92.20;;;17.70;42.31;98240.59;5219269;28;20230;-56
2021/03/26 09:54:39;;;;;;;14.18;12.55;;;17.00;92.90;;;17.94;42.03;98231.16;5219255;28;20193;-56
2021/03/26 09:57:38;;;;;;;15.27;13.68;;;17.30;92.80;;;18.17;39.93;98225.84;5228518;28;20196;-59
2021/03/26 10:00:45;;;;;;;15.23;13.60;;;17.60;91.00;;;17.88;41.68;98217.97;5218268;28;20214;-59
2021/03/26 10:03:51;;;;;;;14.32;11.82;;;17.20;92.20;;;18.20;40.24;98218.22;5216541;28;20198;-60
2021/03/26 10:06:58;;;;;;;13.48;12.07;;;17.40;91.50;;;18.21;40.42;98218.25;5216399;28;20209;-60
2021/03/26 10:09:38;;;;;;;13.55;12.10;;;17.50;91.40;;;18.27;40.22;98220.16;5216085;28;20202;-58
2021/03/26 10:12:19;;;;;;;14.13;12.65;;;17.50;91.40;;;18.39;40.95;98198.97;5214973;28;20217;-59
2021/03/26 10:15:08;;;;;;;14.27;12.60;;;17.60;91.90;;;18.62;40.58;98212.63;5215951;28;20610;-59
2021/03/26 10:17:57;;;;;;;13.80;12.50;;;17.80;91.60;;;18.75;39.16;98204.44;5214858;28;20221;-57
2021/03/26 10:20:42;;;;;;;16.90;14.05;;;18.00;90.60;;;18.54;38.94;98193.38;5215050;28;20236;-58
2021/03/26 10:23:35;;;;;;;14.00;12.60;;;17.80;90.40;;;18.68;39.00;98192.09;5215382;28;20193;-59
2021/03/26 10:26:21;;;;;;;15.20;12.85;;;17.80;90.70;;;18.55;39.42;98189.97;5217960;28;20551;-57
2021/03/26 10:29:16;;;;;;;13.02;11.45;;;17.80;90.50;;;18.65;39.41;98186.81;5217690;28;20198;-56
2021/03/26 10:31:54;;;;;;;13.05;11.73;;;17.90;90.40;;;18.62;38.89;98181.56;5218926;28;20337;-59
2021/03/26 10:34:40;;;;;;;13.60;12.18;;;17.90;90.00;;;18.60;38.89;98167.66;5219394;28;20658;-59
2021/03/26 10:38:02;;;;;;;13.50;12.07;;;17.80;90.00;;;18.67;38.31;98169.63;5216283;28;20284;-60
2021/03/26 10:40:44;;;;;;;13.07;11.70;;;18.10;89.10;;;18.67;39.17;98160.13;5179948;28;20205;-59
2021/03/26 10:43:24;;;;;;;12.93;11.63;;;18.00;90.10;;;18.75;38.69;98159.53;5216303;28;20207;-59
2021/03/26 10:46:06;;;;;;;11.55;10.45;;;18.00;89.40;;;18.77;38.26;98160.44;5216987;28;20208;-59
2021/03/26 10:48:55;;;;;;;13.77;12.35;;;18.10;87.90;;;18.61;37.92;98153.91;5216598;28;20204;-57
2021/03/26 10:51:48;;;;;;;12.40;11.15;;;17.80;88.10;;;18.66;38.68;98147.16;5216168;28;20214;-59
2021/03/26 10:54:34;;;;;;;13.13;11.75;;;17.80;89.50;;;18.76;38.21;98144.03;5215721;28;20212;-58
2021/03/26 10:57:24;;;;;;;13.88;12.20;;;17.80;88.90;;;18.82;38.74;98143.34;5227494;28;20732;-58
2021/03/26 11:00:21;;;;;;;12.05;10.02;;;18.00;89.40;;;18.80;37.93;98135.53;5230398;28;20201;-59
2021/03/26 11:03:01;;;;;;;10.90;9.80;;;18.00;87.60;;;18.89;38.51;98140.09;5230224;28;20215;-58
2021/03/26 11:05:50;;;;;;;14.52;10.75;;;18.10;89.20;;;19.00;37.88;98130.03;5229282;28;20290;-57
2021/03/26 11:08:42;;;;;;;11.35;9.55;;;18.10;88.40;;;19.06;37.79;98119.84;5229272;28;20236;-56
2021/03/26 11:11:27;;;;;;;9.43;8.35;;;18.00;88.00;;;19.13;36.54;98129.53;5227665;28;20229;-58
2021/03/26 11:14:33;;;;;;;9.68;8.77;;;18.20;86.50;;;19.01;36.00;98124.03;5220824;28;20208;-58
2021/03/26 11:17:21;;;;;;;9.48;8.57;;;18.00;85.70;;;18.94;36.51;98124.66;5209061;28;20210;-59
2021/03/26 11:20:38;;;;;;;10.32;8.43;;;18.00;85.80;;;18.92;36.40;98123.78;5221349;28;20251;-59
2021/03/26 11:23:18;;;;;;;9.43;8.52;;;17.90;85.70;;;18.95;35.38;98124.72;5228386;28;20201;-57
2021/03/26 11:25:54;;;;;;;9.82;8.90;;;17.80;84.40;;;18.98;35.23;98108.41;5227154;28;20284;-56
2021/03/26 11:28:30;;;;;;;9.48;8.13;;;17.80;84.10;;;18.82;35.95;98109.66;5212894;28;20200;-59
2021/03/26 11:31:16;;;;;;;8.88;7.68;;;17.90;84.50;;;19.06;34.77;98112.09;5227168;28;20224;-56
2021/03/26 11:33:58;;;;;;;7.68;6.90;;;18.10;82.80;;;19.03;33.77;98104.19;5226592;28;20205;-59
2021/03/26 11:36:42;;;;;;;9.95;7.40;;;18.00;81.00;;;19.00;33.61;98101.53;5209864;28;20309;-59
2021/03/26 11:39:23;;;;;;;7.35;6.30;;;18.10;80.60;;;19.06;32.26;98091.34;5212265;28;20591;-58
2021/03/26 11:42:49;;;;;;;6.72;5.43;;;18.10;77.80;;;18.98;32.61;98087.66;5225284;28;20220;-60
2021/03/26 11:45:40;;;;;;;7.50;6.05;;;18.10;78.00;;;19.11;32.94;98084.56;5211870;28;20205;-58